Time;durP1;ratioP1;P1;durP2;ratioP2;P2;SDS_P1;SDS_P2;PMS_P1;PMS_P2;Temp;Humidity;BMP_temperature;BMP_pressure;BME280_temperature;BME280_humidity;BME280_pressure;Samples;Min_cycle;Max_cycle;Signal;HPM_P1;HPM_P2
2023/12/23 00:00:03;;;;;;;4.50;4.10;;;7.10;99.90;;;;;;5052276;28;20198;-74
2023/12/23 00:02:29;;;;;;;4.47;3.73;;;7.10;99.90;;;;;;5052319;28;20254;-73
2023/12/23 00:04:54;;;;;;;3.73;3.53;;;7.10;99.90;;;;;;5044576;28;20283;-74
2023/12/23 00:07:20;;;;;;;4.27;3.97;;;7.10;99.90;;;;;;5032411;28;20186;-74
2023/12/23 00:09:46;;;;;;;6.80;3.50;;;7.20;99.90;;;;;;5032143;28;20179;-73
2023/12/23 00:12:11;;;;;;;5.93;3.70;;;7.10;99.90;;;;;;5032129;28;20221;-73
2023/12/23 00:14:37;;;;;;;8.30;4.20;;;7.10;99.90;;;;;;5031947;28;20551;-73
2023/12/23 00:17:03;;;;;;;5.83;3.90;;;7.10;99.90;;;;;;5032212;28;20602;-73
2023/12/23 00:19:29;;;;;;;4.90;3.83;;;7.10;99.90;;;;;;5032168;28;20585;-73
2023/12/23 00:21:55;;;;;;;4.43;4.13;;;7.10;99.90;;;;;;5013761;28;20226;-73
2023/12/23 00:24:21;;;;;;;4.40;3.80;;;7.10;99.90;;;;;;5031918;28;20690;-73
2023/12/23 00:26:46;;;;;;;6.20;3.80;;;7.10;99.90;;;;;;5031983;28;20182;-72
2023/12/23 00:29:12;;;;;;;5.93;4.17;;;7.10;99.90;;;;;;5031262;28;20233;-73
2023/12/23 00:31:38;;;;;;;4.80;4.40;;;7.10;99.90;;;;;;5031882;28;20196;-73
2023/12/23 00:34:04;;;;;;;5.50;4.20;;;7.10;99.90;;;;;;5050059;28;20277;-73
2023/12/23 00:36:30;;;;;;;3.77;3.50;;;7.10;99.90;;;;;;5051473;28;20170;-74
2023/12/23 00:38:55;;;;;;;5.83;4.30;;;7.10;99.90;;;;;;5033771;28;20236;-73
2023/12/23 00:41:22;;;;;;;4.70;4.30;;;7.10;99.90;;;;;;5051808;28;20187;-73
2023/12/23 00:43:48;;;;;;;6.17;3.93;;;7.10;99.90;;;;;;5051096;28;20689;-73
2023/12/23 00:46:14;;;;;;;7.57;4.97;;;7.00;99.90;;;;;;5050693;28;20202;-73
2023/12/23 00:48:39;;;;;;;7.73;3.70;;;7.10;99.90;;;;;;5051428;28;20664;-74
2023/12/23 00:51:05;;;;;;;8.23;4.70;;;7.10;99.90;;;;;;5051239;28;20202;-72
2023/12/23 00:53:30;;;;;;;6.03;4.20;;;7.10;99.90;;;;;;5051409;28;20203;-73
2023/12/23 00:55:56;;;;;;;4.50;4.10;;;7.10;99.90;;;;;;5051271;28;20662;-73
2023/12/23 00:58:22;;;;;;;4.70;3.83;;;7.00;99.90;;;;;;5052019;28;20224;-73
2023/12/23 01:00:47;;;;;;;5.00;3.73;;;7.20;99.90;;;;;;5052456;28;20667;-73
2023/12/23 01:03:14;;;;;;;8.27;4.97;;;7.10;99.90;;;;;;5051420;28;20199;-73
2023/12/23 01:05:39;;;;;;;4.30;4.00;;;7.00;99.90;;;;;;5051041;28;20488;-73
2023/12/23 01:08:05;;;;;;;4.90;4.40;;;7.10;99.90;;;;;;5051530;28;20183;-73
2023/12/23 01:10:31;;;;;;;8.60;4.47;;;7.10;99.90;;;;;;5051217;28;20175;-72
2023/12/23 01:12:56;;;;;;;6.23;4.00;;;7.10;99.90;;;;;;5047527;28;20290;-72
2023/12/23 01:15:22;;;;;;;4.53;4.13;;;7.10;99.90;;;;;;5031078;28;20187;-73
2023/12/23 01:17:48;;;;;;;6.63;3.77;;;7.10;99.90;;;;;;5031145;28;20180;-72
2023/12/23 01:20:13;;;;;;;7.47;5.20;;;7.10;99.90;;;;;;5047138;28;20179;-73
2023/12/23 01:22:39;;;;;;;9.93;4.90;;;7.10;99.90;;;;;;5051131;28;20228;-72
2023/12/23 01:25:05;;;;;;;12.97;4.70;;;7.10;99.90;;;;;;5050888;28;20543;-72
2023/12/23 01:27:30;;;;;;;6.47;5.10;;;7.10;99.90;;;;;;5050927;28;20651;-73
2023/12/23 01:29:56;;;;;;;9.77;4.73;;;7.20;99.90;;;;;;5035788;28;20187;-72
2023/12/23 01:32:21;;;;;;;5.80;4.37;;;7.10;99.90;;;;;;5030905;28;20336;-73
2023/12/23 01:34:47;;;;;;;8.70;5.17;;;7.20;99.90;;;;;;5030734;28;20596;-73
2023/12/23 01:37:13;;;;;;;6.73;4.10;;;7.20;99.90;;;;;;5031371;28;20281;-72
2023/12/23 01:39:39;;;;;;;5.27;3.77;;;7.20;99.90;;;;;;5031579;28;20181;-74
2023/12/23 01:42:05;;;;;;;4.23;3.83;;;7.20;99.90;;;;;;5049772;28;20561;-73
2023/12/23 01:44:30;;;;;;;4.77;4.30;;;7.20;99.90;;;;;;5054610;28;20202;-73
2023/12/23 01:46:58;;;;;;;7.90;4.50;;;7.20;99.90;;;;;;5054811;28;20228;-73
2023/12/23 01:49:25;;;;;;;5.03;4.10;;;7.20;99.90;;;;;;5054849;28;20687;-73
2023/12/23 01:51:51;;;;;;;5.03;4.50;;;7.20;99.90;;;;;;5054631;28;20199;-73
2023/12/23 01:54:18;;;;;;;5.43;4.40;;;7.20;99.90;;;;;;5054583;28;20167;-75
2023/12/23 01:56:44;;;;;;;6.70;4.97;;;7.20;99.90;;;;;;5040523;28;20195;-73
2023/12/23 01:59:10;;;;;;;6.60;4.43;;;7.20;99.90;;;;;;5034886;28;20179;-73
2023/12/23 02:01:36;;;;;;;6.40;4.33;;;7.30;99.90;;;;;;5034611;28;20194;-73
2023/12/23 02:04:02;;;;;;;6.70;4.50;;;7.30;99.90;;;;;;5034429;28;20183;-73
2023/12/23 02:06:28;;;;;;;4.50;4.10;;;7.30;99.90;;;;;;5034453;28;20699;-73
2023/12/23 02:08:54;;;;;;;5.77;3.80;;;7.30;99.90;;;;;;5041165;28;20301;-73
2023/12/23 02:11:33;;;;;;;4.60;4.20;;;7.40;99.90;;;;;;5054311;28;20234;-73
2023/12/23 02:14:06;;;;;;;6.67;4.30;;;7.40;99.90;;;;;;5053920;28;20532;-73
2023/12/23 02:16:33;;;;;;;7.23;5.00;;;7.50;99.90;;;;;;5054330;28;20642;-73
2023/12/23 02:18:59;;;;;;;5.57;4.13;;;7.50;99.90;;;;;;5054316;28;20546;-73
2023/12/23 02:21:25;;;;;;;8.63;4.70;;;7.50;99.90;;;;;;5054761;28;20185;-73
2023/12/23 02:23:50;;;;;;;6.50;4.10;;;7.50;99.90;;;;;;5046505;28;20187;-73
2023/12/23 02:26:19;;;;;;;7.27;4.10;;;7.60;99.90;;;;;;5034097;28;20215;-73
2023/12/23 02:28:51;;;;;;;9.50;4.43;;;7.50;99.90;;;;;;5033956;28;20631;-72
2023/12/23 02:31:18;;;;;;;6.37;4.63;;;7.50;99.90;;;;;;5033930;28;20191;-73
2023/12/23 02:33:46;;;;;;;7.77;4.83;;;7.50;99.90;;;;;;5033848;28;20206;-73
2023/12/23 02:36:12;;;;;;;8.10;5.10;;;7.60;99.90;;;;;;5037334;28;20187;-73
2023/12/23 02:38:37;;;;;;;12.83;5.33;;;7.60;99.90;;;;;;5043949;28;20697;-73
2023/12/23 02:41:03;;;;;;;12.13;5.40;;;7.60;99.90;;;;;;5033654;28;20172;-73
2023/12/23 02:43:28;;;;;;;9.77;5.07;;;7.70;99.90;;;;;;5033830;28;20167;-73
2023/12/23 02:45:54;;;;;;;8.40;5.30;;;7.80;99.90;;;;;;5033318;28;20194;-73
2023/12/23 02:48:20;;;;;;;10.63;6.07;;;7.80;99.90;;;;;;5033813;28;20701;-73
2023/12/23 02:50:45;;;;;;;9.10;5.60;;;7.90;99.90;;;;;;5033524;28;20163;-73
2023/12/23 02:53:11;;;;;;;6.73;5.33;;;8.00;99.90;;;;;;5040469;28;20301;-73
2023/12/23 02:55:36;;;;;;;7.80;5.27;;;8.00;99.90;;;;;;5053384;28;20269;-73
2023/12/23 02:58:02;;;;;;;13.23;4.97;;;8.10;99.90;;;;;;5053543;28;20190;-73
2023/12/23 03:00:28;;;;;;;8.83;5.50;;;8.10;99.90;;;;;;5052480;28;20171;-72
2023/12/23 03:02:53;;;;;;;6.93;5.00;;;8.10;99.90;;;;;;5051574;28;20618;-73
2023/12/23 03:05:19;;;;;;;15.50;6.87;;;8.10;99.90;;;;;;5052890;28;20286;-73
2023/12/23 03:07:47;;;;;;;7.63;5.67;;;8.20;99.90;;;;;;5053117;28;20269;-73
2023/12/23 03:10:13;;;;;;;14.73;6.60;;;8.20;99.90;;;;;;5035167;28;20172;-72
2023/12/23 03:12:38;;;;;;;13.23;7.07;;;8.30;99.90;;;;;;5033086;28;20229;-72
2023/12/23 03:15:04;;;;;;;12.73;7.30;;;8.40;99.90;;;;;;5032869;28;20257;-72
2023/12/23 03:17:30;;;;;;;12.87;7.90;;;8.40;99.90;;;;;;5032856;28;20386;-73
2023/12/23 03:19:56;;;;;;;14.80;8.93;;;8.40;99.90;;;;;;5033038;28;20168;-73
2023/12/23 03:22:22;;;;;;;12.13;9.13;;;8.40;99.90;;;;;;5043652;28;20684;-73
2023/12/23 03:24:47;;;;;;;13.50;9.77;;;8.40;99.90;;;;;;5052811;28;20194;-73
2023/12/23 03:27:13;;;;;;;14.50;9.83;;;8.40;99.90;;;;;;5053103;28;20246;-72
2023/12/23 03:29:39;;;;;;;15.27;9.23;;;8.40;99.90;;;;;;5049168;28;20647;-72
2023/12/23 03:32:05;;;;;;;11.67;9.07;;;8.40;99.90;;;;;;5052483;28;20222;-73
2023/12/23 03:34:30;;;;;;;15.30;9.10;;;8.40;99.90;;;;;;5052673;28;20193;-73
2023/12/23 03:36:56;;;;;;;10.80;8.70;;;8.40;99.90;;;;;;5052608;28;20661;-73
2023/12/23 03:39:21;;;;;;;16.57;9.53;;;8.40;99.90;;;;;;5053091;28;20167;-72
2023/12/23 03:41:47;;;;;;;14.63;10.67;;;8.40;99.90;;;;;;5052634;28;20171;-72
2023/12/23 03:44:13;;;;;;;15.87;9.33;;;8.40;99.90;;;;;;5050292;28;20642;-74
2023/12/23 03:46:39;;;;;;;14.47;10.10;;;8.40;99.90;;;;;;5032959;28;20602;-73
2023/12/23 03:49:04;;;;;;;16.50;10.07;;;8.40;99.90;;;;;;5032579;28;20643;-73
2023/12/23 03:51:30;;;;;;;16.13;10.20;;;8.40;99.90;;;;;;5032483;28;20195;-73
2023/12/23 03:53:56;;;;;;;12.60;9.00;;;8.40;99.90;;;;;;5032204;28;20642;-74
2023/12/23 03:56:21;;;;;;;17.60;9.57;;;8.40;99.90;;;;;;5032052;28;20183;-73
2023/12/23 03:58:47;;;;;;;17.13;10.30;;;8.40;99.90;;;;;;5046775;28;20619;-73
2023/12/23 04:01:15;;;;;;;13.63;9.87;;;8.40;99.90;;;;;;5052096;28;20248;-74
2023/12/23 04:03:41;;;;;;;15.07;10.03;;;8.40;99.90;;;;;;5051845;28;20173;-73
2023/12/23 04:06:07;;;;;;;13.53;8.97;;;8.30;99.90;;;;;;5052116;28;20277;-74
2023/12/23 04:08:32;;;;;;;12.60;8.40;;;8.40;99.90;;;;;;5052199;28;20171;-73
2023/12/23 04:10:59;;;;;;;10.97;8.87;;;8.40;99.90;;;;;;5052119;28;20190;-73
2023/12/23 04:13:25;;;;;;;12.50;9.03;;;8.30;99.90;;;;;;5037839;28;20647;-72
2023/12/23 04:15:50;;;;;;;10.10;9.13;;;8.40;99.90;;;;;;5031749;28;20192;-72
2023/12/23 04:18:16;;;;;;;17.33;9.60;;;8.40;99.90;;;;;;5032091;28;20167;-74
2023/12/23 04:20:41;;;;;;;16.40;9.03;;;8.40;99.90;;;;;;5031796;28;20171;-74
2023/12/23 04:23:07;;;;;;;16.70;9.00;;;8.40;99.90;;;;;;5031698;28;20260;-72
2023/12/23 04:25:33;;;;;;;15.37;8.20;;;8.30;99.90;;;;;;5031236;28;20207;-73
2023/12/23 04:27:59;;;;;;;15.07;7.70;;;8.30;99.90;;;;;;5044360;28;20194;-73
2023/12/23 04:30:24;;;;;;;13.57;8.40;;;8.40;99.90;;;;;;5037685;28;20195;-73
2023/12/23 04:32:50;;;;;;;8.23;7.43;;;8.40;99.90;;;;;;5031197;28;20210;-73
2023/12/23 04:35:15;;;;;;;13.27;8.60;;;8.40;99.90;;;;;;5031191;28;20666;-73
2023/12/23 04:37:41;;;;;;;12.90;7.33;;;8.30;99.90;;;;;;5031607;28;20180;-73
2023/12/23 04:40:08;;;;;;;12.27;8.23;;;8.30;99.90;;;;;;5031591;28;20194;-73
2023/12/23 04:42:34;;;;;;;9.00;6.70;;;8.30;99.90;;;;;;5042188;28;20193;-73
2023/12/23 04:44:59;;;;;;;9.77;7.23;;;8.30;99.90;;;;;;5050958;28;20202;-73
2023/12/23 04:47:25;;;;;;;11.10;7.43;;;8.30;99.90;;;;;;5051310;28;20714;-73
2023/12/23 04:49:50;;;;;;;13.73;7.47;;;8.40;99.90;;;;;;5051348;28;20657;-73
2023/12/23 04:52:16;;;;;;;10.07;7.63;;;8.40;99.90;;;;;;5051294;28;20199;-73
2023/12/23 04:54:42;;;;;;;13.33;6.27;;;8.30;99.90;;;;;;5046924;28;20195;-73
2023/12/23 04:57:07;;;;;;;11.67;6.67;;;8.40;99.90;;;;;;5031247;28;20210;-72
2023/12/23 04:59:33;;;;;;;10.27;6.77;;;8.30;99.90;;;;;;5031397;28;20179;-72
2023/12/23 05:01:58;;;;;;;13.77;6.67;;;8.30;99.90;;;;;;5031159;28;20182;-72
2023/12/23 05:04:25;;;;;;;9.00;6.20;;;8.40;99.90;;;;;;5030601;28;20199;-73
2023/12/23 05:06:50;;;;;;;9.17;6.03;;;8.30;99.90;;;;;;5030863;28;20178;-73
2023/12/23 05:09:16;;;;;;;10.03;6.20;;;8.30;99.90;;;;;;5033922;28;20175;-72
2023/12/23 05:11:42;;;;;;;8.47;5.97;;;8.30;99.90;;;;;;5051074;28;20198;-73
2023/12/23 05:14:07;;;;;;;8.50;5.90;;;8.40;99.90;;;;;;5050251;28;20546;-73
2023/12/23 05:16:33;;;;;;;7.40;5.67;;;8.30;99.90;;;;;;5049832;28;20267;-73
2023/12/23 05:18:58;;;;;;;7.23;5.37;;;8.30;99.90;;;;;;5031027;28;20176;-73
2023/12/23 05:21:24;;;;;;;11.43;5.53;;;8.30;99.90;;;;;;5030865;28;20197;-73
2023/12/23 05:23:49;;;;;;;12.80;6.47;;;8.30;99.90;;;;;;5030667;28;20183;-73
2023/12/23 05:26:21;;;;;;;8.87;5.63;;;8.30;99.90;;;;;;5030876;28;20253;-74
2023/12/23 05:28:47;;;;;;;11.57;5.70;;;8.30;99.90;;;;;;5030866;28;20183;-73
2023/12/23 05:31:13;;;;;;;11.17;5.87;;;8.30;99.90;;;;;;5030831;28;20198;-73
2023/12/23 05:33:38;;;;;;;12.67;5.80;;;8.30;99.90;;;;;;5030923;28;20167;-73
2023/12/23 05:36:04;;;;;;;9.57;5.97;;;8.30;99.90;;;;;;5030699;28;20655;-73
2023/12/23 05:38:30;;;;;;;8.27;4.87;;;8.30;99.90;;;;;;5030949;28;20179;-73
2023/12/23 05:40:56;;;;;;;12.27;5.60;;;8.30;99.90;;;;;;5034587;28;20170;-73
2023/12/23 05:43:22;;;;;;;9.83;5.30;;;8.30;99.90;;;;;;5050761;28;20654;-73
2023/12/23 05:45:48;;;;;;;6.13;4.90;;;8.30;99.90;;;;;;5050432;28;20190;-73
2023/12/23 05:48:14;;;;;;;10.10;5.43;;;8.40;99.90;;;;;;5050989;28;20179;-73
2023/12/23 05:50:40;;;;;;;9.17;5.40;;;8.30;99.90;;;;;;5051235;28;20171;-73
2023/12/23 05:53:05;;;;;;;8.30;7.57;;;8.30;99.90;;;;;;5050253;28;20724;-73
2023/12/23 05:55:31;;;;;;;6.17;5.57;;;8.40;99.90;;;;;;5047335;28;20199;-74
2023/12/23 05:57:57;;;;;;;5.80;5.40;;;8.40;99.90;;;;;;5030392;28;20271;-72
2023/12/23 06:00:22;;;;;;;10.37;5.73;;;8.40;99.90;;;;;;5030819;28;20176;-72
2023/12/23 06:02:48;;;;;;;8.63;5.77;;;8.30;99.90;;;;;;5030867;28;20238;-72
2023/12/23 06:05:14;;;;;;;12.00;6.23;;;8.40;99.90;;;;;;5021185;28;20210;-73
2023/12/23 06:07:39;;;;;;;11.90;6.20;;;8.30;99.90;;;;;;5030564;28;20425;-72
2023/12/23 06:10:05;;;;;;;7.33;5.00;;;8.30;99.90;;;;;;5037514;28;20213;-72
2023/12/23 06:12:31;;;;;;;7.43;5.90;;;8.40;99.90;;;;;;5050420;28;20202;-73
2023/12/23 06:14:57;;;;;;;8.73;5.43;;;8.40;99.90;;;;;;5050005;28;20201;-72
2023/12/23 06:17:23;;;;;;;10.40;6.57;;;8.40;99.90;;;;;;5050635;28;20175;-73
2023/12/23 06:19:49;;;;;;;10.77;5.67;;;8.40;99.90;;;;;;5050516;28;20206;-73
2023/12/23 06:22:15;;;;;;;10.00;5.77;;;8.40;99.90;;;;;;5032300;28;20673;-73
2023/12/23 06:24:40;;;;;;;11.13;5.80;;;8.40;99.90;;;;;;5044111;28;20294;-72
2023/12/23 06:27:06;;;;;;;10.40;6.73;;;8.30;99.90;;;;;;5041496;28;20182;-73
2023/12/23 06:29:31;;;;;;;9.93;5.77;;;8.40;99.90;;;;;;5054174;28;20241;-72
2023/12/23 06:31:59;;;;;;;14.20;6.30;;;8.40;99.90;;;;;;5054027;28;20577;-73
2023/12/23 06:34:25;;;;;;;11.77;6.50;;;8.40;99.90;;;;;;5053534;28;20278;-73
2023/12/23 06:36:50;;;;;;;9.07;6.00;;;8.40;99.90;;;;;;5053583;28;20773;-73
2023/12/23 06:39:16;;;;;;;12.57;6.10;;;8.40;99.90;;;;;;5053939;28;20228;-72
2023/12/23 06:41:42;;;;;;;8.77;5.43;;;8.40;99.90;;;;;;5026527;28;20328;-72
2023/12/23 06:44:07;;;;;;;13.97;6.60;;;8.40;99.90;;;;;;5033739;28;20188;-72
2023/12/23 06:46:33;;;;;;;7.03;6.37;;;8.40;99.90;;;;;;5033609;28;20184;-72
2023/12/23 06:48:58;;;;;;;7.07;6.03;;;8.40;99.90;;;;;;5016033;28;20270;-72
2023/12/23 06:51:24;;;;;;;11.77;5.57;;;8.40;99.90;;;;;;5033456;28;20701;-73
2023/12/23 06:53:50;;;;;;;7.37;5.10;;;8.40;99.90;;;;;;5033434;28;20175;-73
2023/12/23 06:56:16;;;;;;;8.70;5.37;;;8.50;99.90;;;;;;5045691;28;20277;-73
2023/12/23 06:58:43;;;;;;;11.70;5.97;;;8.40;99.90;;;;;;5053669;28;20261;-72
2023/12/23 07:01:08;;;;;;;9.43;5.70;;;8.40;99.90;;;;;;5053223;28;20178;-72
2023/12/23 07:03:34;;;;;;;8.83;5.60;;;8.40;99.90;;;;;;5051696;28;20171;-72
2023/12/23 07:06:00;;;;;;;12.07;5.33;;;8.40;99.90;;;;;;5053019;28;20281;-73
2023/12/23 07:08:25;;;;;;;7.77;5.00;;;8.50;99.90;;;;;;5053276;28;20167;-73
2023/12/23 07:10:51;;;;;;;7.00;5.00;;;8.50;99.90;;;;;;5036006;28;20182;-73
2023/12/23 07:13:17;;;;;;;9.00;5.50;;;8.50;99.90;;;;;;5033472;28;21070;-72
2023/12/23 07:15:42;;;;;;;12.07;5.63;;;8.50;99.90;;;;;;5031815;28;20204;-73
2023/12/23 07:18:09;;;;;;;8.80;5.27;;;8.50;99.90;;;;;;5032795;28;20187;-73
2023/12/23 07:20:35;;;;;;;15.33;6.07;;;8.50;99.90;;;;;;5032910;28;20176;-73
2023/12/23 07:23:01;;;;;;;8.03;6.43;;;8.50;99.90;;;;;;5032598;28;20610;-71
2023/12/23 07:25:26;;;;;;;8.07;6.23;;;8.50;99.90;;;;;;5032619;28;20203;-72
2023/12/23 07:27:52;;;;;;;12.40;6.23;;;8.50;99.90;;;;;;5032907;28;20194;-72
2023/12/23 07:30:18;;;;;;;9.47;6.07;;;8.50;99.90;;;;;;5032647;28;20179;-73
2023/12/23 07:32:43;;;;;;;8.87;6.57;;;8.50;99.90;;;;;;5032631;28;20332;-72
2023/12/23 07:35:09;;;;;;;7.17;6.40;;;8.50;99.90;;;;;;5032183;28;20431;-72
2023/12/23 07:37:34;;;;;;;7.63;6.83;;;8.50;99.90;;;;;;5035842;28;20194;-72
2023/12/23 07:40:04;;;;;;;8.47;7.10;;;8.50;99.90;;;;;;5032387;28;20654;-72
2023/12/23 07:42:30;;;;;;;16.77;8.20;;;8.40;99.90;;;;;;5032562;28;20258;-72
2023/12/23 07:44:55;;;;;;;10.47;7.13;;;8.50;99.90;;;;;;5032376;28;20333;-72
2023/12/23 07:47:21;;;;;;;10.97;7.47;;;8.50;99.90;;;;;;5032163;28;20174;-73
2023/12/23 07:49:46;;;;;;;14.13;7.90;;;8.50;99.90;;;;;;5032467;28;20587;-72
2023/12/23 07:52:12;;;;;;;12.43;7.40;;;8.50;99.90;;;;;;5042321;28;20198;-70
2023/12/23 07:54:37;;;;;;;7.97;7.17;;;8.50;99.90;;;;;;5052360;28;20717;-71
2023/12/23 07:57:03;;;;;;;12.27;7.53;;;8.50;99.90;;;;;;5047530;28;20171;-70
2023/12/23 07:59:29;;;;;;;16.10;8.07;;;8.50;99.90;;;;;;5043369;28;20547;-70
2023/12/23 08:01:54;;;;;;;15.87;7.40;;;8.50;99.90;;;;;;5051860;28;20178;-69
2023/12/23 08:04:20;;;;;;;10.07;6.87;;;8.50;99.90;;;;;;5052022;28;20237;-71
2023/12/23 08:06:46;;;;;;;15.07;7.43;;;8.50;99.90;;;;;;5051959;28;20167;-72
2023/12/23 08:09:11;;;;;;;13.17;7.53;;;8.50;99.90;;;;;;5050181;28;20171;-70
2023/12/23 08:11:37;;;;;;;16.30;7.80;;;8.50;99.90;;;;;;5051691;28;20190;-70
2023/12/23 08:14:04;;;;;;;12.40;9.40;;;8.50;99.90;;;;;;5051505;28;20171;-70
2023/12/23 08:16:29;;;;;;;13.80;8.27;;;8.50;99.90;;;;;;5051861;28;20175;-70
2023/12/23 08:18:55;;;;;;;10.03;8.10;;;8.50;99.90;;;;;;5035951;28;20282;-70
2023/12/23 08:21:21;;;;;;;10.57;8.13;;;8.60;99.90;;;;;;5031703;28;20183;-70
2023/12/23 08:23:47;;;;;;;11.50;8.53;;;8.50;99.90;;;;;;5031650;28;20176;-72
2023/12/23 08:26:12;;;;;;;8.60;7.63;;;8.50;99.90;;;;;;5031321;28;20292;-70
2023/12/23 08:28:38;;;;;;;13.73;8.10;;;8.50;99.90;;;;;;5031891;28;20179;-70
2023/12/23 08:31:04;;;;;;;11.47;8.20;;;8.50;99.90;;;;;;5036676;28;20217;-71
2023/12/23 08:33:29;;;;;;;10.60;8.17;;;8.50;99.90;;;;;;5039293;28;20175;-71
2023/12/23 08:35:56;;;;;;;15.47;8.63;;;8.60;99.90;;;;;;5031529;28;20218;-70
2023/12/23 08:38:22;;;;;;;13.20;9.10;;;8.60;99.90;;;;;;5031690;28;20168;-69
2023/12/23 08:40:48;;;;;;;14.33;7.83;;;8.60;99.90;;;;;;5031678;28;20579;-70
2023/12/23 08:43:14;;;;;;;13.33;7.70;;;8.60;99.90;;;;;;5031525;28;20233;-71
2023/12/23 08:45:39;;;;;;;13.37;7.50;;;8.60;99.90;;;;;;5013201;28;20589;-71
2023/12/23 08:48:05;;;;;;;12.87;8.80;;;8.60;99.90;;;;;;5041868;28;20261;-71
2023/12/23 08:50:31;;;;;;;17.00;8.07;;;8.70;99.90;;;;;;5050907;28;20512;-71
2023/12/23 08:52:56;;;;;;;12.03;7.83;;;8.70;99.90;;;;;;5049666;28;20205;-70
2023/12/23 08:55:22;;;;;;;12.77;7.67;;;8.70;99.90;;;;;;5050844;28;20193;-71
2023/12/23 08:57:48;;;;;;;14.40;7.87;;;8.80;99.90;;;;;;5051322;28;20163;-70
2023/12/23 09:00:14;;;;;;;18.60;7.97;;;8.80;99.90;;;;;;5051224;28;20178;-69
2023/12/23 09:02:40;;;;;;;16.77;7.63;;;8.90;99.90;;;;;;5051231;28;20178;-69
2023/12/23 09:05:06;;;;;;;11.43;8.00;;;8.90;99.90;;;;;;5050966;28;20657;-70
2023/12/23 09:07:31;;;;;;;13.57;8.40;;;8.90;99.90;;;;;;5026270;28;20270;-71
2023/12/23 09:09:57;;;;;;;15.67;8.20;;;8.90;99.90;;;;;;5031304;28;20618;-70
2023/12/23 09:12:23;;;;;;;11.43;7.27;;;9.00;99.90;;;;;;5032476;28;20200;-70
2023/12/23 09:14:51;;;;;;;11.63;7.50;;;9.00;99.90;;;;;;5031135;28;20245;-70
2023/12/23 09:17:17;;;;;;;12.00;7.53;;;9.00;99.90;;;;;;5032958;28;20175;-71
2023/12/23 09:19:42;;;;;;;18.43;7.27;;;9.10;99.90;;;;;;5051032;28;20268;-69
2023/12/23 09:22:08;;;;;;;12.93;6.87;;;9.10;99.90;;;;;;5050726;28;20701;-71
2023/12/23 09:24:37;;;;;;;10.70;6.33;;;9.20;99.90;;;;;;5050606;28;20190;-70
2023/12/23 09:27:03;;;;;;;13.87;7.10;;;9.20;99.90;;;;;;5050891;28;20179;-70
2023/12/23 09:29:29;;;;;;;7.73;6.13;;;9.20;99.90;;;;;;5050160;28;20177;-71
2023/12/23 09:31:55;;;;;;;9.63;6.57;;;9.20;99.90;;;;;;5049304;28;20665;-70
2023/12/23 09:34:21;;;;;;;8.17;6.77;;;9.30;99.90;;;;;;5030525;28;20194;-71
2023/12/23 09:36:46;;;;;;;13.90;6.77;;;9.30;99.90;;;;;;5033456;28;20655;-69
2023/12/23 09:39:12;;;;;;;11.93;6.37;;;9.30;99.90;;;;;;5045859;28;20254;-70
2023/12/23 09:41:40;;;;;;;10.33;6.03;;;9.30;99.90;;;;;;5037157;28;20187;-70
2023/12/23 09:44:06;;;;;;;10.47;6.97;;;9.40;99.90;;;;;;5038160;28;20179;-71
2023/12/23 09:46:32;;;;;;;10.63;6.50;;;9.40;99.90;;;;;;5050904;28;20316;-70
2023/12/23 09:48:57;;;;;;;11.50;5.83;;;9.40;99.90;;;;;;5040012;28;20180;-70
2023/12/23 09:51:27;;;;;;;9.73;6.23;;;9.40;99.90;;;;;;5030277;28;20282;-71
2023/12/23 09:53:56;;;;;;;7.40;5.50;;;9.50;99.90;;;;;;5030399;28;20259;-70
2023/12/23 09:56:22;;;;;;;8.33;6.53;;;9.60;99.90;;;;;;5030824;28;20192;-71
2023/12/23 09:58:48;;;;;;;12.40;6.20;;;9.60;99.90;;;;;;5030875;28;20172;-71
2023/12/23 10:01:13;;;;;;;7.40;5.30;;;9.60;99.90;;;;;;5043267;28;20681;-70
2023/12/23 10:03:39;;;;;;;5.50;5.00;;;9.70;99.90;;;;;;5054408;28;20163;-72
2023/12/23 10:06:05;;;;;;;8.53;5.13;;;9.80;99.90;;;;;;5054046;28;20705;-72
2023/12/23 10:08:31;;;;;;;7.43;5.30;;;9.80;99.90;;;;;;5054532;28;20159;-70
2023/12/23 10:10:56;;;;;;;8.10;5.60;;;9.80;99.90;;;;;;5054383;28;20179;-71
2023/12/23 10:13:22;;;;;;;6.80;6.10;;;9.80;99.90;;;;;;5054129;28;20260;-71
2023/12/23 10:15:47;;;;;;;7.47;4.93;;;9.80;99.90;;;;;;5054150;28;20183;-71
2023/12/23 10:18:13;;;;;;;6.40;5.80;;;9.70;99.90;;;;;;5045741;28;20543;-71
2023/12/23 10:20:41;;;;;;;10.57;5.80;;;9.70;99.90;;;;;;5053252;28;20206;-70
2023/12/23 10:23:08;;;;;;;7.23;5.27;;;9.50;99.90;;;;;;5051740;28;20206;-70
2023/12/23 10:25:34;;;;;;;10.40;5.90;;;9.40;99.90;;;;;;5053669;28;20274;-70
2023/12/23 10:28:01;;;;;;;8.47;5.83;;;9.30;99.90;;;;;;5040954;28;20655;-70
2023/12/23 10:30:29;;;;;;;10.53;6.27;;;9.30;99.90;;;;;;5035988;28;20190;-69
2023/12/23 10:33:01;;;;;;;5.93;5.33;;;9.20;99.90;;;;;;5044428;28;20210;-70
2023/12/23 10:35:29;;;;;;;5.80;5.30;;;9.20;99.90;;;;;;5038758;28;20199;-69
2023/12/23 10:37:58;;;;;;;7.00;6.30;;;9.20;99.90;;;;;;5039614;28;20308;-69
2023/12/23 10:40:26;;;;;;;9.93;6.10;;;9.20;99.90;;;;;;5052546;28;20178;-69
2023/12/23 10:42:54;;;;;;;6.73;6.00;;;9.10;99.90;;;;;;5040800;28;20182;-69
2023/12/23 10:45:20;;;;;;;6.53;5.83;;;9.10;99.90;;;;;;5052958;28;20678;-70
2023/12/23 10:47:49;;;;;;;6.03;5.30;;;9.10;99.90;;;;;;5039282;28;20281;-70
2023/12/23 10:50:16;;;;;;;8.77;6.27;;;9.10;99.90;;;;;;5033750;28;20572;-70
2023/12/23 10:52:42;;;;;;;12.23;6.33;;;9.10;99.90;;;;;;5046453;28;20493;-71
2023/12/23 10:55:09;;;;;;;8.60;6.97;;;9.10;99.90;;;;;;5034187;28;20666;-70
2023/12/23 10:57:36;;;;;;;11.17;6.67;;;9.10;99.90;;;;;;5045572;28;20266;-71
2023/12/23 11:00:03;;;;;;;6.10;5.60;;;9.10;99.90;;;;;;5045354;28;20180;-70
2023/12/23 11:02:29;;;;;;;8.20;5.73;;;9.00;99.90;;;;;;5050483;28;20179;-70
2023/12/23 11:04:57;;;;;;;7.73;5.77;;;9.10;99.90;;;;;;5052820;28;20191;-70
2023/12/23 11:07:28;;;;;;;7.53;5.67;;;9.10;99.90;;;;;;5035874;28;20251;-70
2023/12/23 11:09:58;;;;;;;11.87;5.87;;;9.10;99.90;;;;;;5038157;28;20270;-71
2023/12/23 11:12:24;;;;;;;6.73;6.13;;;9.10;99.90;;;;;;5045682;28;20205;-70
2023/12/23 11:14:50;;;;;;;7.43;5.70;;;9.20;99.90;;;;;;5034332;28;20206;-70
2023/12/23 11:17:24;;;;;;;6.40;5.77;;;9.10;99.90;;;;;;5033988;28;20171;-70
2023/12/23 11:19:50;;;;;;;6.80;6.17;;;9.20;99.90;;;;;;5039191;28;20183;-70
2023/12/23 11:22:37;;;;;;;9.00;6.27;;;9.20;99.90;;;;;;5052736;28;20187;-70
2023/12/23 11:25:03;;;;;;;9.83;6.33;;;9.20;99.90;;;;;;5053171;28;20198;-69
2023/12/23 11:27:37;;;;;;;6.50;5.80;;;9.20;99.90;;;;;;5052972;28;20178;-70
2023/12/23 11:30:10;;;;;;;10.70;5.87;;;9.20;99.90;;;;;;5053131;28;20179;-70
2023/12/23 11:32:39;;;;;;;8.90;6.03;;;9.20;99.90;;;;;;5053040;28;20610;-70
2023/12/23 11:35:07;;;;;;;6.17;5.63;;;9.20;99.90;;;;;;5050489;28;20694;-70
2023/12/23 11:37:53;;;;;;;9.30;5.90;;;9.20;99.90;;;;;;5053359;28;20229;-70
2023/12/23 11:40:20;;;;;;;8.73;6.20;;;9.30;99.90;;;;;;5053331;28;20176;-70
2023/12/23 11:42:47;;;;;;;9.90;7.13;;;9.20;99.90;;;;;;5033723;28;20205;-69
2023/12/23 11:45:14;;;;;;;13.07;6.40;;;9.30;99.90;;;;;;5032352;28;20347;-71
2023/12/23 11:47:40;;;;;;;8.33;6.87;;;9.40;99.90;;;;;;5032690;28;20274;-71
2023/12/23 11:50:07;;;;;;;7.90;6.17;;;9.40;99.90;;;;;;5032622;28;20619;-71
2023/12/23 11:52:36;;;;;;;10.07;6.50;;;9.50;99.90;;;;;;5032492;28;20230;-69
2023/12/23 11:55:05;;;;;;;10.37;6.83;;;9.60;99.90;;;;;;5032153;28;20187;-70
2023/12/23 11:57:31;;;;;;;6.90;5.67;;;9.60;99.90;;;;;;5032828;28;20200;-71
2023/12/23 12:00:02;;;;;;;10.03;5.30;;;9.70;99.90;;;;;;5052555;28;20263;-70
2023/12/23 12:02:27;;;;;;;7.47;5.00;;;9.80;99.90;;;;;;5052938;28;20170;-69
2023/12/23 12:04:53;;;;;;;8.43;5.30;;;9.90;99.90;;;;;;5051879;28;20617;-69
2023/12/23 12:07:20;;;;;;;7.97;5.07;;;10.00;99.90;;;;;;5044229;28;20179;-69
2023/12/23 12:09:46;;;;;;;9.80;5.10;;;10.00;99.90;;;;;;5032981;28;20219;-69
2023/12/23 12:12:12;;;;;;;7.40;4.70;;;10.10;99.90;;;;;;5031952;28;20222;-69
2023/12/23 12:14:38;;;;;;;7.73;4.73;;;10.10;99.90;;;;;;5033039;28;20544;-70
2023/12/23 12:17:03;;;;;;;8.60;6.30;;;10.20;99.90;;;;;;5032261;28;20191;-69
2023/12/23 12:19:29;;;;;;;6.43;4.40;;;10.30;99.90;;;;;;5031819;28;20168;-70
2023/12/23 12:21:55;;;;;;;5.17;4.40;;;10.30;99.90;;;;;;5039281;28;20618;-70
2023/12/23 12:24:20;;;;;;;6.57;4.30;;;10.30;99.90;;;;;;5044567;28;20284;-70
2023/12/23 12:26:52;;;;;;;7.20;4.93;;;10.30;99.90;;;;;;5031767;28;20163;-69
2023/12/23 12:29:19;;;;;;;5.87;4.20;;;10.40;99.90;;;;;;5033000;28;20174;-71
2023/12/23 12:31:45;;;;;;;4.63;4.00;;;10.40;99.90;;;;;;5033815;28;20210;-69
2023/12/23 12:34:12;;;;;;;6.13;4.17;;;10.40;99.90;;;;;;5033717;28;20174;-69
2023/12/23 12:36:38;;;;;;;4.43;4.03;;;10.30;99.90;;;;;;5051976;28;20155;-69
2023/12/23 12:39:04;;;;;;;7.37;4.13;;;10.20;99.90;;;;;;5051685;28;20194;-69
2023/12/23 12:41:29;;;;;;;5.47;4.00;;;10.20;99.90;;;;;;5051878;28;20190;-71
2023/12/23 12:43:55;;;;;;;8.77;3.90;;;10.20;99.90;;;;;;5051555;28;20197;-70
2023/12/23 12:46:21;;;;;;;4.10;3.80;;;10.20;99.90;;;;;;5048243;28;20210;-70